This is the latest recevied weather packets stored in our database for station/object EB2GLU-13. If no packets are shown the sender has not sent any weather packets the latest 10 day(s).
| Time | Temp. | Humidity | Pressure | Rain* | Wind** | Luminosity | Snow |
|---|---|---|---|---|---|---|---|
| 1777282138 | 17.78° C | 80% | 1018.6 hPa | 0 mm | - | - | - |
| 1777281388 | 17.22° C | 82% | 1018.8 hPa | 0 mm | - | - | - |
| 1777280638 | 17.22° C | 81% | 1018.9 hPa | 0 mm | - | - | - |
| 1777279888 | 17.78° C | 81% | 1018.6 hPa | 0 mm | - | - | - |
| 1777279138 | 16.67° C | 84% | 1018.8 hPa | 0 mm | - | - | - |
| 1777278388 | 16.67° C | 85% | 1018.6 hPa | 0 mm | - | - | - |
| 1777277638 | 16.67° C | 84% | 1018.6 hPa | 0 mm | - | - | - |
| 1777276888 | 16.11° C | 85% | 1018.6 hPa | 0 mm | - | - | - |
| 1777276138 | 16.67° C | 83% | 1018.6 hPa | 0 mm | - | - | - |
| 1777275388 | 16.67° C | 83% | 1018.6 hPa | 0 mm | - | - | - |
| 1777274638 | 16.67° C | 83% | 1018.6 hPa | 0 mm | - | - | - |
| 1777273888 | 16.11° C | 85% | 1018.7 hPa | 0 mm | - | - | - |
| 1777273138 | 16.11° C | 85% | 1018.6 hPa | 0 mm | - | - | - |
| 1777272388 | 16.11° C | 85% | 1018.5 hPa | 0 mm | - | - | - |
| 1777271638 | 15.56° C | 86% | 1018.5 hPa | 0 mm | - | - | - |
| 1777270888 | 16.11° C | 85% | 1018.5 hPa | 0 mm | - | - | - |
| 1777270138 | 16.11° C | 86% | 1018.6 hPa | 0 mm | - | - | - |
| 1777269388 | 16.11° C | 87% | 1018.3 hPa | 0 mm | - | - | - |
| 1777268638 | 16.11° C | 86% | 1018.4 hPa | 0 mm | - | - | - |
| 1777267888 | 15.56° C | 87% | 1018.2 hPa | 0 mm | - | - | - |
| 1777267138 | 15.56° C | 88% | 1018.2 hPa | 0 mm | - | - | - |
| 1777266388 | 15.56° C | 88% | 1018.2 hPa | 0 mm | - | - | - |
| 1777265638 | 15.56° C | 88% | 1018.4 hPa | 0 mm | - | - | - |
| 1777264888 | 15.56° C | 88% | 1018.2 hPa | 0 mm | - | - | - |
| 1777264138 | 15° C | 89% | 1018.2 hPa | 0 mm | - | - | - |
* Rain latest hour (hover to see other rain measurements)
** Current wind speed in m/s (hover to see current wind gust speed)